Time;durP1;ratioP1;P1;durP2;ratioP2;P2;SDS_P1;SDS_P2;PMS_P1;PMS_P2;Temp;Humidity;BMP_temperature;BMP_pressure;BME280_temperature;BME280_humidity;BME280_pressure;Samples;Min_cycle;Max_cycle;Signal;HPM_P1;HPM_P2
2022/08/30 00:01:20;;;;;;;;;;;23.00;89.40;;;;;;5059474;28;19931;-79
2022/08/30 00:03:46;;;;;;;;;;;22.80;90.40;;;;;;5064260;28;19916;-80
2022/08/30 00:06:13;;;;;;;;;;;22.80;90.90;;;;;;5067716;28;20393;-80
2022/08/30 00:08:40;;;;;;;;;;;22.80;89.60;;;;;;5060057;28;20409;-80
2022/08/30 00:11:08;;;;;;;;;;;22.80;88.20;;;;;;5064118;28;19920;-80
2022/08/30 00:13:38;;;;;;;;;;;22.70;88.70;;;;;;5059619;28;20359;-79
2022/08/30 00:16:05;;;;;;;;;;;22.80;88.50;;;;;;5047557;28;19975;-80
2022/08/30 00:18:31;;;;;;;;;;;22.70;89.20;;;;;;5067312;28;19923;-80
2022/08/30 00:20:57;;;;;;;;;;;22.70;89.60;;;;;;5062765;28;20395;-80
2022/08/30 00:23:23;;;;;;;;;;;22.60;89.30;;;;;;5070199;28;19927;-79
2022/08/30 00:25:48;;;;;;;;;;;22.70;88.50;;;;;;5066979;28;20673;-79
2022/08/30 00:28:15;;;;;;;;;;;22.80;88.80;;;;;;5072842;28;19974;-79
2022/08/30 00:30:41;;;;;;;;;;;22.80;89.30;;;;;;5064925;28;19916;-79
2022/08/30 00:33:07;;;;;;;;;;;22.80;90.10;;;;;;5062442;28;20007;-79
2022/08/30 00:35:33;;;;;;;;;;;22.80;88.30;;;;;;5063355;28;20007;-79
2022/08/30 00:37:59;;;;;;;;;;;22.80;88.90;;;;;;5062819;28;20383;-79
2022/08/30 00:40:25;;;;;;;;;;;22.80;90.00;;;;;;5062769;28;19924;-79
2022/08/30 00:42:50;;;;;;;;;;;22.80;89.80;;;;;;5054987;28;19916;-79
2022/08/30 00:45:16;;;;;;;;;;;22.80;89.70;;;;;;5064567;28;19928;-79
2022/08/30 00:47:41;;;;;;;;;;;22.70;90.00;;;;;;5065406;28;20396;-80
2022/08/30 00:50:08;;;;;;;;;;;22.60;90.00;;;;;;5067820;28;20003;-79
2022/08/30 00:52:35;;;;;;;;;;;22.70;89.40;;;;;;5057111;28;19964;-79
2022/08/30 00:55:03;;;;;;;;;;;22.60;89.60;;;;;;5060929;28;21575;-79
2022/08/30 00:57:30;;;;;;;;;;;22.40;90.50;;;;;;5083711;28;19916;-80
2022/08/30 00:59:56;;;;;;;;;;;22.10;91.30;;;;;;5069493;28;20300;-80
2022/08/30 01:02:22;;;;;;;;;;;22.10;91.10;;;;;;5065362;28;19954;-80
2022/08/30 01:04:50;;;;;;;;;;;22.10;90.80;;;;;;5083356;28;19918;-80
2022/08/30 01:07:16;;;;;;;;;;;22.20;90.40;;;;;;5068912;28;19930;-81
2022/08/30 01:09:42;;;;;;;;;;;22.20;90.20;;;;;;5084029;28;19916;-80
2022/08/30 01:12:08;;;;;;;;;;;22.10;90.50;;;;;;5082438;28;19938;-80
2022/08/30 01:14:33;;;;;;;;;;;22.20;90.30;;;;;;5082466;28;19924;-80
2022/08/30 01:17:00;;;;;;;;;;;22.20;90.30;;;;;;5067805;28;20001;-79
2022/08/30 01:19:32;;;;;;;;;;;22.20;90.30;;;;;;5064340;28;19946;-79
2022/08/30 01:22:01;;;;;;;;;;;22.20;90.10;;;;;;5063672;28;20422;-79
2022/08/30 01:24:27;;;;;;;;;;;22.10;90.30;;;;;;5063997;28;19921;-79
2022/08/30 01:26:53;;;;;;;;;;;21.90;91.30;;;;;;5062377;28;20452;-80
2022/08/30 01:29:21;;;;;;;;;;;21.70;92.10;;;;;;5096712;28;19916;-80
2022/08/30 01:31:48;;;;;;;;;;;21.70;92.30;;;;;;5070443;28;19916;-80
2022/08/30 01:34:13;;;;;;;;;;;21.80;92.20;;;;;;5073320;28;19920;-79
2022/08/30 01:36:41;;;;;;;;;;;21.80;92.20;;;;;;5072296;28;19928;-80
2022/08/30 01:39:08;;;;;;;;;;;21.80;92.00;;;;;;5067147;28;19922;-81
2022/08/30 01:41:35;;;;;;;;;;;21.80;92.20;;;;;;5069803;28;19971;-80
2022/08/30 01:44:03;;;;;;;;;;;21.80;92.40;;;;;;5066695;28;19920;-80
2022/08/30 01:46:34;;;;;;;;;;;21.80;92.50;;;;;;5067939;28;19962;-80
2022/08/30 01:49:01;;;;;;;;;;;21.70;92.60;;;;;;5065320;28;20406;-79
2022/08/30 01:51:27;;;;;;;;;;;21.50;93.60;;;;;;5064334;28;19970;-80
2022/08/30 01:53:52;;;;;;;;;;;21.30;94.70;;;;;;5091629;28;19963;-80
2022/08/30 01:56:18;;;;;;;;;;;21.30;94.60;;;;;;5065490;28;19920;-80
2022/08/30 01:58:44;;;;;;;;;;;21.30;94.80;;;;;;5068828;28;19928;-79
2022/08/30 02:01:11;;;;;;;;;;;21.20;95.20;;;;;;5066158;28;20454;-88
2022/08/30 02:03:37;;;;;;;;;;;21.30;94.80;;;;;;5067366;28;20300;-88
2022/08/30 02:06:04;;;;;;;;;;;21.30;94.70;;;;;;5066811;28;19947;-87
2022/08/30 02:08:29;;;;;;;;;;;21.30;94.80;;;;;;5073450;28;19981;-87
2022/08/30 02:10:56;;;;;;;;;;;21.20;95.60;;;;;;5066712;28;20460;-88
2022/08/30 02:13:22;;;;;;;;;;;21.00;96.50;;;;;;5062356;28;20003;-89
2022/08/30 02:15:48;;;;;;;;;;;21.10;96.50;;;;;;5068223;28;20032;-89
2022/08/30 02:18:13;;;;;;;;;;;21.10;96.40;;;;;;5063842;28;20024;-87
2022/08/30 02:20:39;;;;;;;;;;;21.10;96.80;;;;;;5067082;28;19928;-87
2022/08/30 02:23:04;;;;;;;;;;;21.10;96.80;;;;;;5066241;28;19916;-86
2022/08/30 02:25:30;;;;;;;;;;;21.10;96.60;;;;;;5067881;28;20549;-87
2022/08/30 02:27:55;;;;;;;;;;;21.20;96.30;;;;;;5072133;28;19916;-86
2022/08/30 02:30:21;;;;;;;;;;;21.10;96.50;;;;;;5086595;28;19920;-86
2022/08/30 02:32:46;;;;;;;;;;;21.10;96.40;;;;;;5066375;28;19917;-84
2022/08/30 02:35:12;;;;;;;;;;;21.10;96.30;;;;;;5090027;28;19970;-85
2022/08/30 02:37:38;;;;;;;;;;;21.10;96.60;;;;;;5067767;28;20269;-85
2022/08/30 02:40:05;;;;;;;;;;;21.20;96.50;;;;;;5073871;28;20303;-87
2022/08/30 02:42:30;;;;;;;;;;;21.10;96.60;;;;;;5068090;28;19924;-87
2022/08/30 02:44:56;;;;;;;;;;;21.00;96.90;;;;;;5068442;28;20405;-86
2022/08/30 02:47:21;;;;;;;;;;;21.00;97.80;;;;;;5072897;28;19965;-87
2022/08/30 02:49:47;;;;;;;;;;;20.90;98.60;;;;;;5065077;28;19975;-86
2022/08/30 02:52:12;;;;;;;;;;;20.80;98.80;;;;;;5064962;28;19928;-85
2022/08/30 02:54:38;;;;;;;;;;;20.80;98.60;;;;;;5072092;28;20422;-86
2022/08/30 02:57:05;;;;;;;;;;;20.70;99.30;;;;;;5058531;28;19924;-86
2022/08/30 02:59:31;;;;;;;;;;;20.60;99.70;;;;;;5065063;28;19952;-80
2022/08/30 03:01:56;;;;;;;;;;;20.60;99.90;;;;;;5065279;28;19974;-79
2022/08/30 03:04:22;;;;;;;;;;;20.50;99.90;;;;;;5070223;28;19922;-78
2022/08/30 03:06:48;;;;;;;;;;;20.40;99.90;;;;;;5068678;28;19935;-79
2022/08/30 03:09:13;;;;;;;;;;;20.40;99.90;;;;;;5068848;28;20027;-78
2022/08/30 03:11:39;;;;;;;;;;;20.50;99.90;;;;;;5064908;28;19927;-78
2022/08/30 03:14:05;;;;;;;;;;;20.60;99.90;;;;;;5066466;28;19986;-78
2022/08/30 03:16:30;;;;;;;;;;;20.60;99.90;;;;;;5068004;28;19970;-78
2022/08/30 03:18:56;;;;;;;;;;;20.60;99.90;;;;;;5072108;28;19931;-78
2022/08/30 03:21:21;;;;;;;;;;;20.60;99.90;;;;;;5065216;28;19975;-79
2022/08/30 03:23:47;;;;;;;;;;;20.60;99.90;;;;;;5064305;28;19925;-78
2022/08/30 03:26:13;;;;;;;;;;;20.70;99.90;;;;;;5065845;28;19920;-78
2022/08/30 03:28:40;;;;;;;;;;;20.80;99.90;;;;;;5064763;28;20383;-78
2022/08/30 03:31:05;;;;;;;;;;;20.70;99.90;;;;;;5068055;28;20638;-78
2022/08/30 03:33:31;;;;;;;;;;;20.70;99.90;;;;;;5083631;28;19920;-80
2022/08/30 03:35:56;;;;;;;;;;;20.60;99.90;;;;;;5065405;28;19920;-80
2022/08/30 03:38:23;;;;;;;;;;;20.60;99.90;;;;;;5067832;28;20032;-80
2022/08/30 03:40:48;;;;;;;;;;;20.60;99.90;;;;;;5065049;28;19928;-79
2022/08/30 03:43:14;;;;;;;;;;;20.60;99.90;;;;;;5062824;28;19916;-80
2022/08/30 03:45:39;;;;;;;;;;;20.50;99.90;;;;;;5065318;28;19920;-80
2022/08/30 03:48:05;;;;;;;;;;;20.40;99.90;;;;;;5072211;28;19916;-82
2022/08/30 03:50:31;;;;;;;;;;;20.40;99.90;;;;;;5065509;28;19923;-82
2022/08/30 03:52:57;;;;;;;;;;;20.30;99.90;;;;;;5061459;28;19969;-79
2022/08/30 03:55:23;;;;;;;;;;;20.20;99.90;;;;;;5092470;28;19927;-78
2022/08/30 03:57:48;;;;;;;;;;;20.30;99.90;;;;;;5081514;28;19916;-79
2022/08/30 04:00:15;;;;;;;;;;;20.20;99.90;;;;;;5064755;28;20426;-86
2022/08/30 04:02:41;;;;;;;;;;;20.20;99.90;;;;;;5067472;28;20684;-87
2022/08/30 04:05:08;;;;;;;;;;;20.10;99.90;;;;;;5068621;28;20009;-86
2022/08/30 04:07:34;;;;;;;;;;;20.10;99.90;;;;;;5056595;28;20275;-87
2022/08/30 04:09:59;;;;;;;;;;;20.10;99.90;;;;;;5063287;28;19985;-85
2022/08/30 04:12:25;;;;;;;;;;;20.00;99.90;;;;;;5066181;28;20419;-90
2022/08/30 04:14:51;;;;;;;;;;;19.90;99.90;;;;;;5071324;28;19915;-88
2022/08/30 04:17:16;;;;;;;;;;;19.80;99.90;;;;;;5065561;28;19939;-87
2022/08/30 04:19:42;;;;;;;;;;;19.90;99.90;;;;;;5062924;28;20382;-89
2022/08/30 04:22:07;;;;;;;;;;;19.80;99.90;;;;;;5066832;28;20688;-89
2022/08/30 04:24:33;;;;;;;;;;;19.80;99.90;;;;;;5071815;28;20412;-90
2022/08/30 04:26:59;;;;;;;;;;;19.80;99.90;;;;;;5071450;28;19927;-89
2022/08/30 04:29:24;;;;;;;;;;;19.90;99.90;;;;;;5065702;28;20014;-88
2022/08/30 04:31:50;;;;;;;;;;;19.90;99.90;;;;;;5068657;28;19977;-94
2022/08/30 04:34:15;;;;;;;;;;;19.90;99.90;;;;;;5070759;28;19913;-89
2022/08/30 04:36:41;;;;;;;;;;;20.00;99.90;;;;;;5074451;28;19916;-89
2022/08/30 04:39:06;;;;;;;;;;;20.00;99.90;;;;;;5069578;28;20299;-87
2022/08/30 04:41:34;;;;;;;;;;;19.80;99.90;;;;;;5064410;28;20306;-86
2022/08/30 04:44:01;;;;;;;;;;;19.70;99.90;;;;;;5064095;28;19920;-90
2022/08/30 04:46:27;;;;;;;;;;;19.80;99.90;;;;;;5069394;28;19939;-92
2022/08/30 04:48:52;;;;;;;;;;;19.90;99.90;;;;;;5062085;28;20388;-91
2022/08/30 04:51:18;;;;;;;;;;;20.00;99.90;;;;;;5065992;28;20007;-88
2022/08/30 04:53:44;;;;;;;;;;;20.00;99.90;;;;;;5064705;28;20303;-86
2022/08/30 04:56:11;;;;;;;;;;;19.90;99.90;;;;;;5065657;28;19916;-87
2022/08/30 04:58:36;;;;;;;;;;;19.90;99.90;;;;;;5062201;28;19916;-88
2022/08/30 05:01:02;;;;;;;;;;;19.90;99.90;;;;;;5061053;28;19925;-85
2022/08/30 05:03:27;;;;;;;;;;;19.90;99.90;;;;;;5064070;28;19921;-85
2022/08/30 05:05:53;;;;;;;;;;;19.90;99.90;;;;;;5069897;28;19920;-85
2022/08/30 05:08:20;;;;;;;;;;;19.90;99.90;;;;;;5066367;28;20418;-85
2022/08/30 05:10:47;;;;;;;;;;;19.80;99.90;;;;;;5071029;28;19920;-91
2022/08/30 05:13:14;;;;;;;;;;;19.80;99.90;;;;;;5073702;28;19917;-83
2022/08/30 05:15:40;;;;;;;;;;;19.70;99.90;;;;;;5071294;28;19916;-84
2022/08/30 05:18:06;;;;;;;;;;;19.90;99.90;;;;;;5066034;28;19912;-83
2022/08/30 05:20:32;;;;;;;;;;;20.00;99.90;;;;;;5067155;28;20023;-92
2022/08/30 05:22:58;;;;;;;;;;;20.10;99.90;;;;;;5106962;28;19927;-92
2022/08/30 05:25:25;;;;;;;;;;;20.00;99.90;;;;;;5076561;28;19908;-92
2022/08/30 05:27:51;;;;;;;;;;;19.90;99.90;;;;;;5080452;28;20054;-93
2022/08/30 05:30:17;;;;;;;;;;;19.90;99.90;;;;;;5081594;28;19916;-92
2022/08/30 05:32:43;;;;;;;;;;;20.00;99.90;;;;;;5075525;28;19920;-91
2022/08/30 05:35:09;;;;;;;;;;;20.00;99.90;;;;;;5075172;28;19923;-91
2022/08/30 05:37:35;;;;;;;;;;;20.20;99.90;;;;;;5074927;28;19917;-92
2022/08/30 05:40:01;;;;;;;;;;;20.30;99.90;;;;;;5108072;28;19909;-94
2022/08/30 05:42:26;;;;;;;;;;;20.20;99.90;;;;;;5109861;28;19917;-94
2022/08/30 05:44:52;;;;;;;;;;;20.40;99.90;;;;;;5076556;28;20554;-88
2022/08/30 05:47:18;;;;;;;;;;;20.50;99.90;;;;;;5076530;28;19912;-92
2022/08/30 05:49:44;;;;;;;;;;;20.60;99.90;;;;;;5061715;28;19924;-85
2022/08/30 05:52:11;;;;;;;;;;;20.70;99.90;;;;;;5072364;28;19959;-91
2022/08/30 05:54:37;;;;;;;;;;;20.80;99.90;;;;;;5073279;28;19916;-87
2022/08/30 05:57:02;;;;;;;;;;;21.00;99.90;;;;;;5078918;28;19965;-88
2022/08/30 05:59:28;;;;;;;;;;;21.50;99.90;;;;;;5069740;28;19923;-90
2022/08/30 06:01:55;;;;;;;;;;;22.10;99.90;;;;;;5073610;28;19929;-85
2022/08/30 06:04:21;;;;;;;;;;;23.00;98.60;;;;;;5072615;28;19916;-87
2022/08/30 06:06:47;;;;;;;;;;;24.00;96.20;;;;;;5071102;28;19912;-84
2022/08/30 06:09:13;;;;;;;;;;;24.50;94.40;;;;;;5069710;28;19913;-86
2022/08/30 06:11:39;;;;;;;;;;;25.10;93.60;;;;;;5069480;28;19912;-86
2022/08/30 06:14:05;;;;;;;;;;;25.10;92.80;;;;;;5070717;28;19930;-84
2022/08/30 06:16:31;;;;;;;;;;;24.90;93.20;;;;;;5079835;28;19916;-83
2022/08/30 06:18:57;;;;;;;;;;;25.20;92.70;;;;;;5059576;28;19913;-87
2022/08/30 06:21:25;;;;;;;;;;;25.50;91.90;;;;;;5063490;28;19949;-83
2022/08/30 06:23:51;;;;;;;;;;;25.40;91.70;;;;;;5066926;28;19913;-85
2022/08/30 06:26:17;;;;;;;;;;;25.60;91.20;;;;;;5074078;28;19916;-86
2022/08/30 06:28:42;;;;;;;;;;;26.00;90.60;;;;;;5085736;28;19935;-84
2022/08/30 06:31:09;;;;;;;;;;;25.90;90.30;;;;;;5084494;28;19943;-84
2022/08/30 06:33:35;;;;;;;;;;;26.20;89.40;;;;;;5085211;28;19912;-83
2022/08/30 06:36:01;;;;;;;;;;;25.90;90.10;;;;;;5085838;28;19958;-85
2022/08/30 06:38:27;;;;;;;;;;;26.90;88.60;;;;;;5085135;28;20422;-85
2022/08/30 06:40:52;;;;;;;;;;;27.30;84.20;;;;;;5069995;28;19931;-86
2022/08/30 06:43:18;;;;;;;;;;;27.60;83.40;;;;;;5065658;28;20312;-86
2022/08/30 06:45:43;;;;;;;;;;;27.60;84.30;;;;;;5079439;28;19924;-85
2022/08/30 06:48:09;;;;;;;;;;;27.80;84.10;;;;;;5066815;28;19923;-86
2022/08/30 06:50:35;;;;;;;;;;;28.20;82.90;;;;;;5060188;28;19924;-87
2022/08/30 06:53:04;;;;;;;;;;;27.30;83.10;;;;;;5064428;28;20013;-87
2022/08/30 06:55:32;;;;;;;;;;;25.90;88.10;;;;;;5097591;28;19951;-87
2022/08/30 06:57:59;;;;;;;;;;;26.60;86.60;;;;;;5094854;28;19912;-88
2022/08/30 07:00:25;;;;;;;;;;;27.70;83.20;;;;;;5063188;28;19999;-87
2022/08/30 07:02:50;;;;;;;;;;;28.30;80.50;;;;;;5064036;28;20058;-87
2022/08/30 07:05:16;;;;;;;;;;;28.20;80.00;;;;;;5063353;28;20003;-87
2022/08/30 07:07:42;;;;;;;;;;;28.70;78.20;;;;;;5062913;28;21272;-87
2022/08/30 07:10:08;;;;;;;;;;;28.90;77.30;;;;;;5063479;28;19973;-88
2022/08/30 07:12:35;;;;;;;;;;;28.90;75.90;;;;;;5063754;28;19916;-88
2022/08/30 07:15:02;;;;;;;;;;;29.30;75.50;;;;;;5063538;28;20378;-87
2022/08/30 07:20:12;;;;;;;;;;;29.70;74.20;;;;;;5062058;28;20024;-88
2022/08/30 07:22:38;;;;;;;;;;;30.40;72.50;;;;;;5065377;28;19920;-88
2022/08/30 07:25:04;;;;;;;;;;;30.50;70.60;;;;;;5061568;28;19927;-87
2022/08/30 07:27:29;;;;;;;;;;;31.00;69.70;;;;;;5063954;28;19923;-86
2022/08/30 07:29:57;;;;;;;;;;;30.90;69.80;;;;;;5057774;28;19917;-86
2022/08/30 07:32:23;;;;;;;;;;;31.00;69.10;;;;;;5044038;28;19929;-86
2022/08/30 07:34:48;;;;;;;;;;;31.50;68.60;;;;;;5054559;28;19916;-86
2022/08/30 07:37:14;;;;;;;;;;;32.00;65.90;;;;;;5060131;28;19923;-87
2022/08/30 07:39:39;;;;;;;;;;;32.20;66.50;;;;;;5055941;28;19916;-88
2022/08/30 07:42:05;;;;;;;;;;;32.30;66.40;;;;;;5045149;28;20304;-88
2022/08/30 07:44:31;;;;;;;;;;;32.30;66.50;;;;;;5064138;28;19989;-87
2022/08/30 07:46:56;;;;;;;;;;;32.40;65.20;;;;;;5062851;28;20364;-89
2022/08/30 07:49:22;;;;;;;;;;;32.60;66.90;;;;;;5060226;28;19924;-90
2022/08/30 07:51:47;;;;;;;;;;;33.00;63.60;;;;;;5062249;28;19927;-89
2022/08/30 07:54:13;;;;;;;;;;;33.60;63.80;;;;;;5062152;28;19917;-88
2022/08/30 07:56:39;;;;;;;;;;;33.60;62.40;;;;;;5063428;28;19947;-88
2022/08/30 07:59:05;;;;;;;;;;;33.80;63.50;;;;;;5061519;28;19942;-88
2022/08/30 08:01:30;;;;;;;;;;;34.50;61.70;;;;;;5063316;28;20003;-88
2022/08/30 08:03:56;;;;;;;;;;;34.80;61.20;;;;;;5059900;28;19912;-88
2022/08/30 08:06:22;;;;;;;;;;;34.60;61.00;;;;;;5060367;28;20710;-88
2022/08/30 08:08:48;;;;;;;;;;;35.20;59.90;;;;;;5058372;28;19917;-88
2022/08/30 08:11:15;;;;;;;;;;;34.90;59.30;;;;;;5051829;28;20442;-88
2022/08/30 08:13:41;;;;;;;;;;;35.10;58.70;;;;;;5049259;28;19921;-89
2022/08/30 08:16:07;;;;;;;;;;;35.60;58.70;;;;;;5054413;28;19924;-91
2022/08/30 08:18:32;;;;;;;;;;;35.10;57.70;;;;;;5062747;28;19917;-89
2022/08/30 08:20:58;;;;;;;;;;;35.50;57.40;;;;;;5063586;28;19927;-87
2022/08/30 08:23:24;;;;;;;;;;;36.40;56.40;;;;;;5054265;28;19920;-90
2022/08/30 08:25:50;;;;;;;;;;;36.20;55.80;;;;;;5059338;28;19919;-88
2022/08/30 08:28:15;;;;;;;;;;;36.40;55.90;;;;;;5063954;28;19938;-89
2022/08/30 08:30:41;;;;;;;;;;;36.40;54.70;;;;;;5063789;28;19958;-87
2022/08/30 08:33:07;;;;;;;;;;;36.50;56.00;;;;;;5059725;28;19916;-87
2022/08/30 08:35:33;;;;;;;;;;;36.60;54.70;;;;;;5060993;28;19913;-86
2022/08/30 08:37:58;;;;;;;;;;;36.70;53.70;;;;;;5063329;28;20406;-87
2022/08/30 08:40:24;;;;;;;;;;;36.90;53.30;;;;;;5079541;28;20414;-87
2022/08/30 08:42:50;;;;;;;;;;;36.70;54.40;;;;;;5041534;28;20352;-88
2022/08/30 08:45:22;;;;;;;;;;;37.30;53.50;;;;;;5075879;28;19909;-87
2022/08/30 08:48:08;;;;;;;;;;;37.60;52.30;;;;;;5043269;28;19920;-85
2022/08/30 08:50:34;;;;;;;;;;;37.00;52.60;;;;;;5060970;28;19952;-85
2022/08/30 08:55:50;;;;;;;;;;;37.50;52.50;;;;;;5043667;28;20552;-86
2022/08/30 08:58:23;;;;;;;;;;;37.40;51.80;;;;;;5055750;28;20556;-88
2022/08/30 09:00:49;;;;;;;;;;;37.50;50.80;;;;;;5061486;28;20017;-86
2022/08/30 09:03:17;;;;;;;;;;;37.40;49.70;;;;;;5062992;28;19921;-87
2022/08/30 09:05:43;;;;;;;;;;;37.60;51.10;;;;;;5061358;28;19917;-87
2022/08/30 09:08:12;;;;;;;;;;;38.00;50.80;;;;;;5058362;28;19913;-88
2022/08/30 09:10:38;;;;;;;;;;;37.60;50.60;;;;;;5061875;28;19912;-88
2022/08/30 09:13:04;;;;;;;;;;;37.70;51.00;;;;;;5061182;28;19947;-87
2022/08/30 09:15:31;;;;;;;;;;;38.10;49.70;;;;;;5061604;28;20380;-88
2022/08/30 09:17:58;;;;;;;;;;;37.80;48.00;;;;;;5061301;28;19912;-88
2022/08/30 09:20:26;;;;;;;;;;;37.40;48.40;;;;;;5060805;28;20382;-87
2022/08/30 09:22:51;;;;;;;;;;;37.60;47.70;;;;;;5060412;28;20019;-87
2022/08/30 09:25:28;;;;;;;;;;;37.90;48.10;;;;;;5062375;28;19912;-88
2022/08/30 09:28:06;;;;;;;;;;;38.80;48.30;;;;;;5057227;28;19998;-87
2022/08/30 09:30:32;;;;;;;;;;;38.00;47.50;;;;;;5041570;28;19969;-87
2022/08/30 09:32:59;;;;;;;;;;;38.20;47.20;;;;;;5058232;28;20284;-89
2022/08/30 09:35:34;;;;;;;;;;;38.40;46.80;;;;;;5060885;28;20395;-87
2022/08/30 09:38:07;;;;;;;;;;;38.20;47.00;;;;;;5057624;28;19917;-87
2022/08/30 09:40:41;;;;;;;;;;;38.60;47.20;;;;;;5063084;28;19917;-85
2022/08/30 09:43:06;;;;;;;;;;;38.70;47.80;;;;;;5058166;28;20016;-86
2022/08/30 09:45:34;;;;;;;;;;;39.00;45.20;;;;;;5061484;28;19999;-86
2022/08/30 09:48:19;;;;;;;;;;;37.80;45.50;;;;;;5051576;28;19958;-87
2022/08/30 09:50:45;;;;;;;;;;;38.50;46.00;;;;;;5052098;28;19924;-86
2022/08/30 09:53:15;;;;;;;;;;;38.20;45.60;;;;;;5045330;28;19936;-86
2022/08/30 09:55:43;;;;;;;;;;;37.40;45.50;;;;;;5045339;28;19912;-87
2022/08/30 09:58:21;;;;;;;;;;;37.80;46.40;;;;;;5048146;28;19912;-86
2022/08/30 10:01:06;;;;;;;;;;;38.40;46.50;;;;;;5095464;28;20719;-86
2022/08/30 10:03:35;;;;;;;;;;;38.20;46.70;;;;;;5078118;28;19921;-86
2022/08/30 10:06:19;;;;;;;;;;;36.60;47.50;;;;;;5045490;28;20000;-87
2022/08/30 10:09:02;;;;;;;;;;;36.00;46.80;;;;;;5055338;28;20423;-86
2022/08/30 10:11:30;;;;;;;;;;;35.00;49.00;;;;;;5065552;28;20673;-86
2022/08/30 10:14:15;;;;;;;;;;;34.00;50.70;;;;;;5066715;28;19916;-86
2022/08/30 10:16:40;;;;;;;;;;;33.50;51.30;;;;;;5066512;28;20334;-86
2022/08/30 10:19:19;;;;;;;;;;;33.90;51.50;;;;;;5063286;28;20512;-87
2022/08/30 10:21:48;;;;;;;;;;;33.60;51.40;;;;;;5062205;28;20708;-86
2022/08/30 10:24:17;;;;;;;;;;;33.00;52.70;;;;;;5066388;28;19928;-86
2022/08/30 10:26:52;;;;;;;;;;;33.30;53.90;;;;;;5064858;28;19966;-86
2022/08/30 10:29:22;;;;;;;;;;;33.60;53.00;;;;;;5058394;28;19917;-87
2022/08/30 10:31:59;;;;;;;;;;;32.90;53.20;;;;;;5066171;28;19913;-86
2022/08/30 10:34:25;;;;;;;;;;;32.40;54.80;;;;;;5050324;28;20021;-86
2022/08/30 10:36:56;;;;;;;;;;;32.20;54.60;;;;;;5078361;28;19999;-86
2022/08/30 10:39:24;;;;;;;;;;;32.70;54.90;;;;;;5064489;28;19913;-85
2022/08/30 10:41:53;;;;;;;;;;;32.80;54.30;;;;;;5098201;28;20281;-86
2022/08/30 10:44:19;;;;;;;;;;;32.80;53.80;;;;;;5054585;28;19916;-87
2022/08/30 10:46:54;;;;;;;;;;;32.90;53.40;;;;;;5059631;28;19923;-86
2022/08/30 10:49:21;;;;;;;;;;;32.50;54.40;;;;;;5064109;28;20125;-87
2022/08/30 10:51:51;;;;;;;;;;;32.30;54.50;;;;;;5062801;28;20736;-86
2022/08/30 10:54:22;;;;;;;;;;;32.10;55.00;;;;;;5053101;28;19917;-86
2022/08/30 10:56:50;;;;;;;;;;;32.10;55.10;;;;;;5045667;28;19963;-86
2022/08/30 10:59:16;;;;;;;;;;;32.00;53.70;;;;;;5051334;28;20002;-86
2022/08/30 11:01:56;;;;;;;;;;;31.80;55.10;;;;;;5064641;28;19931;-86
2022/08/30 11:04:41;;;;;;;;;;;31.80;55.30;;;;;;5062926;28;20402;-86
2022/08/30 11:07:09;;;;;;;;;;;31.80;56.50;;;;;;5064364;28;19924;-86
2022/08/30 11:09:50;;;;;;;;;;;31.50;54.90;;;;;;5075324;28;19912;-85
2022/08/30 11:12:15;;;;;;;;;;;31.80;55.60;;;;;;5063588;28;19935;-86
2022/08/30 11:14:42;;;;;;;;;;;31.80;56.00;;;;;;5064488;28;20387;-85
2022/08/30 11:17:22;;;;;;;;;;;31.80;55.00;;;;;;5096322;28;19913;-87
2022/08/30 11:19:47;;;;;;;;;;;31.70;56.10;;;;;;5062955;28;19912;-86
2022/08/30 11:22:15;;;;;;;;;;;31.80;56.00;;;;;;5058086;28;19933;-86
2022/08/30 11:24:53;;;;;;;;;;;31.70;54.00;;;;;;5056168;28;20654;-86
2022/08/30 11:27:38;;;;;;;;;;;31.50;55.20;;;;;;5064206;28;19938;-86
2022/08/30 11:30:23;;;;;;;;;;;31.40;54.40;;;;;;5064828;28;19951;-86
2022/08/30 11:32:58;;;;;;;;;;;31.50;54.90;;;;;;5064964;28;20681;-84
2022/08/30 11:35:38;;;;;;;;;;;31.00;54.80;;;;;;5061962;28;19920;-85
2022/08/30 11:38:10;;;;;;;;;;;30.80;53.30;;;;;;5064148;28;20214;-84
2022/08/30 11:40:48;;;;;;;;;;;31.20;54.30;;;;;;5051516;28;19913;-85
2022/08/30 11:43:40;;;;;;;;;;;31.20;54.10;;;;;;5061434;28;20458;-86
2022/08/30 11:46:14;;;;;;;;;;;31.20;54.90;;;;;;5063495;28;20005;-86
2022/08/30 11:48:50;;;;;;;;;;;31.30;54.30;;;;;;5091191;28;19939;-87
2022/08/30 11:51:18;;;;;;;;;;;31.20;53.20;;;;;;5061403;28;19985;-85
2022/08/30 11:53:51;;;;;;;;;;;31.10;52.60;;;;;;5051328;28;20046;-86
2022/08/30 11:56:35;;;;;;;;;;;30.90;53.10;;;;;;5062176;28;20336;-85
2022/08/30 11:59:09;;;;;;;;;;;30.80;52.50;;;;;;5059518;28;20013;-84
2022/08/30 12:01:36;;;;;;;;;;;30.70;52.80;;;;;;5063778;28;19925;-85
2022/08/30 12:04:32;;;;;;;;;;;30.90;53.40;;;;;;5063588;28;19912;-86
2022/08/30 12:07:02;;;;;;;;;;;31.00;52.00;;;;;;5052505;28;20391;-85
2022/08/30 12:09:29;;;;;;;;;;;31.30;53.10;;;;;;5061392;28;19995;-84
2022/08/30 12:11:57;;;;;;;;;;;31.40;52.30;;;;;;5062469;28;19923;-84
2022/08/30 12:14:50;;;;;;;;;;;31.40;51.00;;;;;;5061972;28;19912;-85
2022/08/30 12:20:35;;;;;;;;;;;31.60;53.00;;;;;;5064203;28;19923;-87
2022/08/30 12:23:13;;;;;;;;;;;31.50;52.70;;;;;;5050725;28;20343;-85
2022/08/30 12:25:39;;;;;;;;;;;31.30;52.30;;;;;;5046185;28;19916;-86
2022/08/30 12:28:24;;;;;;;;;;;31.30;53.50;;;;;;5062676;28;19943;-86
2022/08/30 12:30:50;;;;;;;;;;;31.30;52.90;;;;;;5056611;28;19920;-86
2022/08/30 12:33:25;;;;;;;;;;;31.20;52.20;;;;;;5059430;28;19912;-86
2022/08/30 12:35:52;;;;;;;;;;;31.50;52.60;;;;;;5052719;28;19960;-88
2022/08/30 12:38:18;;;;;;;;;;;31.80;51.70;;;;;;5063037;28;19919;-88
2022/08/30 12:40:49;;;;;;;;;;;31.70;50.80;;;;;;5060318;28;19917;-88
2022/08/30 12:43:22;;;;;;;;;;;31.40;50.10;;;;;;5045490;28;19926;-87
2022/08/30 12:45:49;;;;;;;;;;;31.50;50.60;;;;;;5060344;28;19941;-88
2022/08/30 12:48:16;;;;;;;;;;;31.70;51.00;;;;;;5063126;28;19913;-89
2022/08/30 12:50:41;;;;;;;;;;;31.40;50.60;;;;;;5056193;28;20368;-86
2022/08/30 12:53:10;;;;;;;;;;;31.40;51.00;;;;;;5077884;28;19971;-86
2022/08/30 12:55:48;;;;;;;;;;;31.20;51.10;;;;;;5054819;28;20431;-88
2022/08/30 12:58:14;;;;;;;;;;;31.30;51.00;;;;;;5063692;28;19948;-88
2022/08/30 13:00:41;;;;;;;;;;;31.50;51.20;;;;;;5062209;28;20667;-88
2022/08/30 13:03:07;;;;;;;;;;;31.40;49.90;;;;;;5061421;28;19928;-86
2022/08/30 13:05:39;;;;;;;;;;;31.40;50.00;;;;;;5058793;28;19939;-84
2022/08/30 13:08:07;;;;;;;;;;;31.30;49.50;;;;;;5051034;28;19952;-85
2022/08/30 13:10:33;;;;;;;;;;;31.60;50.80;;;;;;5063151;28;19912;-85
2022/08/30 13:13:00;;;;;;;;;;;31.20;50.50;;;;;;5051567;28;19962;-85
2022/08/30 13:15:28;;;;;;;;;;;30.60;51.00;;;;;;5063497;28;19912;-85
2022/08/30 13:18:12;;;;;;;;;;;30.80;52.20;;;;;;5096049;28;19927;-85
2022/08/30 13:20:37;;;;;;;;;;;30.70;50.40;;;;;;5062215;28;19912;-85
2022/08/30 13:23:07;;;;;;;;;;;30.60;51.20;;;;;;5062394;28;19927;-85
2022/08/30 13:25:34;;;;;;;;;;;30.70;51.30;;;;;;5064428;28;19927;-85
2022/08/30 13:28:00;;;;;;;;;;;30.90;51.20;;;;;;5068144;28;19913;-85
2022/08/30 13:30:26;;;;;;;;;;;30.50;50.50;;;;;;5068235;28;20284;-85
2022/08/30 13:32:52;;;;;;;;;;;30.60;51.60;;;;;;5067778;28;19919;-85
2022/08/30 13:35:17;;;;;;;;;;;30.90;53.30;;;;;;5067839;28;19912;-85
2022/08/30 13:37:43;;;;;;;;;;;31.10;53.30;;;;;;5100116;28;20437;-85
2022/08/30 13:40:10;;;;;;;;;;;30.60;51.30;;;;;;5066006;28;19913;-85
2022/08/30 13:42:35;;;;;;;;;;;30.70;52.90;;;;;;5067504;28;19920;-85
2022/08/30 13:45:01;;;;;;;;;;;30.60;52.70;;;;;;5066315;28;20417;-85
2022/08/30 13:47:26;;;;;;;;;;;30.80;53.10;;;;;;5067625;28;19912;-85
2022/08/30 13:49:52;;;;;;;;;;;31.00;53.20;;;;;;5067263;28;19913;-85
2022/08/30 13:52:21;;;;;;;;;;;30.90;51.90;;;;;;5067186;28;19957;-86
2022/08/30 13:54:51;;;;;;;;;;;30.80;53.20;;;;;;5066169;28;20007;-85
2022/08/30 13:57:17;;;;;;;;;;;30.60;52.10;;;;;;5066329;28;19912;-85
2022/08/30 13:59:43;;;;;;;;;;;30.60;52.60;;;;;;5067972;28;19935;-86
2022/08/30 14:02:08;;;;;;;;;;;30.80;53.10;;;;;;5065987;28;20400;-85
2022/08/30 14:04:34;;;;;;;;;;;30.70;52.40;;;;;;5067331;28;20474;-85
2022/08/30 14:06:59;;;;;;;;;;;30.70;52.40;;;;;;5067444;28;19912;-85
2022/08/30 14:09:25;;;;;;;;;;;30.60;53.00;;;;;;5067414;28;19919;-85
2022/08/30 14:11:50;;;;;;;;;;;30.70;53.30;;;;;;5067569;28;19924;-85
2022/08/30 14:14:16;;;;;;;;;;;30.80;53.50;;;;;;5067598;28;19931;-85
2022/08/30 14:16:42;;;;;;;;;;;30.70;53.30;;;;;;5067836;28;19941;-85
2022/08/30 14:19:10;;;;;;;;;;;30.50;53.60;;;;;;5067097;28;19916;-85
2022/08/30 14:21:36;;;;;;;;;;;30.50;53.40;;;;;;5067422;28;20718;-85
2022/08/30 14:24:04;;;;;;;;;;;30.60;52.60;;;;;;5067362;28;19982;-85
2022/08/30 14:26:34;;;;;;;;;;;30.50;53.10;;;;;;5065765;28;20364;-85
2022/08/30 14:29:04;;;;;;;;;;;30.50;53.70;;;;;;5066820;28;19919;-85